createdAt,value
2018-03-30T00:00:09.327Z,16.17
2018-03-30T00:02:36.070Z,17.30
2018-03-30T00:05:02.827Z,10.93
2018-03-30T00:07:29.577Z,15.10
2018-03-30T00:09:56.340Z,12.70
2018-03-30T00:12:23.094Z,12.70
2018-03-30T00:14:49.885Z,13.30
2018-03-30T00:17:16.700Z,13.27
2018-03-30T00:19:43.495Z,15.67
2018-03-30T00:22:10.283Z,18.10
2018-03-30T00:24:37.090Z,15.20
2018-03-30T00:27:03.882Z,22.03
2018-03-30T00:29:30.654Z,15.50
2018-03-30T00:31:57.547Z,11.77
2018-03-30T00:34:24.333Z,15.07
2018-03-30T00:36:51.140Z,18.50
2018-03-30T00:39:17.947Z,14.43
2018-03-30T00:41:44.729Z,14.37
2018-03-30T00:44:11.553Z,14.80
2018-03-30T00:46:38.324Z,15.70
2018-03-30T00:49:05.094Z,17.50
2018-03-30T00:51:31.878Z,17.70
2018-03-30T00:53:58.653Z,16.53
2018-03-30T00:56:25.405Z,14.63
2018-03-30T00:58:52.173Z,19.20
2018-03-30T01:01:18.930Z,29.87
2018-03-30T01:03:45.733Z,21.57
2018-03-30T01:06:12.509Z,19.07
2018-03-30T01:08:39.297Z,21.37
2018-03-30T01:11:09.930Z,19.60
2018-03-30T01:13:36.733Z,21.70
2018-03-30T01:16:03.596Z,17.20
2018-03-30T01:18:30.371Z,19.20
2018-03-30T01:20:57.184Z,20.33
2018-03-30T01:23:23.930Z,21.17
2018-03-30T01:25:50.845Z,20.57
2018-03-30T01:28:17.667Z,19.53
2018-03-30T01:30:44.459Z,17.63
2018-03-30T01:33:11.207Z,35.87
2018-03-30T01:35:37.954Z,19.33
2018-03-30T01:38:04.719Z,19.27
2018-03-30T01:40:31.466Z,17.63
2018-03-30T01:42:58.315Z,22.90
2018-03-30T01:45:25.170Z,18.60
2018-03-30T01:47:51.958Z,21.00
2018-03-30T01:50:18.730Z,17.03
2018-03-30T01:52:45.515Z,20.50
2018-03-30T01:55:12.305Z,18.27
2018-03-30T01:57:39.084Z,19.93
2018-03-30T02:00:07.534Z,16.00
2018-03-30T02:02:34.342Z,21.73
2018-03-30T02:05:01.095Z,18.00
2018-03-30T02:07:27.878Z,16.20
2018-03-30T02:09:54.651Z,18.70
2018-03-30T02:12:21.467Z,16.43
2018-03-30T02:14:48.266Z,15.50
2018-03-30T02:17:15.010Z,18.63
2018-03-30T02:19:41.746Z,17.63
2018-03-30T02:22:08.524Z,18.43
2018-03-30T02:24:35.374Z,19.53
2018-03-30T02:27:02.149Z,17.80
2018-03-30T02:29:28.941Z,28.10
2018-03-30T02:31:55.762Z,18.77
2018-03-30T02:34:22.522Z,16.93
2018-03-30T02:36:49.280Z,20.27
2018-03-30T02:39:16.090Z,16.70
2018-03-30T02:41:42.868Z,18.57
2018-03-30T02:44:09.624Z,15.90
2018-03-30T02:46:36.420Z,20.63
2018-03-30T02:49:03.192Z,17.93
2018-03-30T02:51:29.998Z,17.53
2018-03-30T02:53:56.804Z,13.27
2018-03-30T02:56:23.751Z,13.50
2018-03-30T02:58:50.543Z,13.73
2018-03-30T03:01:17.316Z,17.97
2018-03-30T03:03:44.166Z,14.80
2018-03-30T03:06:10.962Z,15.07
2018-03-30T03:08:37.793Z,15.80
2018-03-30T03:11:04.587Z,16.17
2018-03-30T03:13:31.361Z,16.13
2018-03-30T03:15:58.150Z,18.43
2018-03-30T03:18:24.959Z,30.87
2018-03-30T03:20:51.773Z,22.57
2018-03-30T03:23:18.550Z,17.77
2018-03-30T03:25:45.307Z,21.67
2018-03-30T03:28:12.100Z,21.70
2018-03-30T03:30:38.896Z,24.77
2018-03-30T03:33:05.698Z,17.13
2018-03-30T03:35:32.474Z,17.73
2018-03-30T03:37:59.230Z,16.57
2018-03-30T03:40:26.006Z,21.83
2018-03-30T03:42:52.819Z,15.87
2018-03-30T03:45:19.606Z,16.43
2018-03-30T03:47:46.393Z,15.37
2018-03-30T03:50:13.164Z,18.50
2018-03-30T03:52:39.960Z,16.80
2018-03-30T03:55:06.730Z,16.73
2018-03-30T03:57:33.460Z,15.97
2018-03-30T04:00:00.294Z,16.93
2018-03-30T04:02:27.061Z,15.30
2018-03-30T04:04:54.204Z,19.43
2018-03-30T04:07:20.954Z,14.67
2018-03-30T04:09:47.699Z,16.97
2018-03-30T04:12:14.501Z,13.90
2018-03-30T04:14:41.269Z,14.70
2018-03-30T04:17:08.105Z,15.97
2018-03-30T04:19:34.877Z,20.63
2018-03-30T04:22:01.654Z,14.20
2018-03-30T04:24:28.444Z,13.87
2018-03-30T04:26:55.385Z,16.30
2018-03-30T04:29:22.150Z,15.20
2018-03-30T04:31:48.933Z,18.93
2018-03-30T04:34:15.703Z,18.10
2018-03-30T04:36:42.473Z,22.07
2018-03-30T04:39:09.233Z,22.87
2018-03-30T04:41:36.027Z,19.23
2018-03-30T04:44:02.790Z,19.37
2018-03-30T04:46:29.570Z,31.37
2018-03-30T04:48:56.372Z,20.50
2018-03-30T04:51:23.163Z,24.10
2018-03-30T04:53:49.983Z,19.37
2018-03-30T04:56:16.866Z,22.03
2018-03-30T04:58:44.411Z,26.53
2018-03-30T05:01:11.228Z,24.73
2018-03-30T05:03:38.083Z,26.63
2018-03-30T05:06:04.862Z,29.57
2018-03-30T05:08:31.991Z,26.90
2018-03-30T05:10:58.787Z,26.70
2018-03-30T05:13:25.561Z,28.47
2018-03-30T05:15:52.298Z,22.37
2018-03-30T05:18:19.065Z,26.73
2018-03-30T05:20:45.886Z,24.13
2018-03-30T05:23:12.790Z,20.47
2018-03-30T05:25:39.519Z,23.43
2018-03-30T05:28:06.331Z,22.10
2018-03-30T05:30:33.097Z,20.23
2018-03-30T05:32:59.832Z,18.80
2018-03-30T05:35:27.154Z,21.30
2018-03-30T05:37:53.908Z,22.87
2018-03-30T05:40:20.691Z,21.23
2018-03-30T05:42:47.860Z,24.07
2018-03-30T05:45:14.620Z,27.40
2018-03-30T05:47:41.450Z,30.10
2018-03-30T05:50:08.245Z,28.53
2018-03-30T05:52:35.010Z,26.83
2018-03-30T05:55:01.814Z,24.53
2018-03-30T05:57:28.590Z,24.00
2018-03-30T05:59:55.375Z,25.93
2018-03-30T06:02:22.210Z,25.30
2018-03-30T06:04:49.086Z,29.07
2018-03-30T06:07:15.912Z,25.67
2018-03-30T06:09:42.694Z,26.43
2018-03-30T06:12:09.512Z,23.20
2018-03-30T06:14:36.272Z,22.07
2018-03-30T06:17:03.094Z,24.60
2018-03-30T06:19:29.870Z,25.97
2018-03-30T06:21:56.615Z,30.00
2018-03-30T06:24:23.390Z,32.97
2018-03-30T06:26:50.234Z,44.03
2018-03-30T06:29:17.046Z,35.80
2018-03-30T06:31:43.822Z,39.17
2018-03-30T06:34:10.612Z,31.33
2018-03-30T06:36:37.452Z,34.13
2018-03-30T06:39:05.122Z,28.47
2018-03-30T06:41:31.939Z,26.17
2018-03-30T06:43:58.751Z,23.73
2018-03-30T06:46:25.528Z,24.80
2018-03-30T06:48:52.299Z,24.53
2018-03-30T06:51:19.066Z,23.97
2018-03-30T06:53:45.853Z,20.57
2018-03-30T06:56:12.649Z,36.80
2018-03-30T06:58:39.458Z,21.83
2018-03-30T07:01:06.206Z,26.13
2018-03-30T07:03:32.987Z,21.50
2018-03-30T07:05:59.812Z,23.57
2018-03-30T07:08:26.623Z,22.33
2018-03-30T07:10:53.416Z,20.43
2018-03-30T07:13:20.208Z,21.70
2018-03-30T07:15:46.978Z,19.00
2018-03-30T07:18:13.834Z,23.83
2018-03-30T07:20:40.598Z,23.53
2018-03-30T07:23:07.334Z,18.20
2018-03-30T07:25:34.156Z,21.43
2018-03-30T07:28:01.281Z,16.90
2018-03-30T07:30:28.126Z,17.73
2018-03-30T07:32:54.867Z,17.87
2018-03-30T07:35:21.732Z,16.13
2018-03-30T07:37:48.586Z,13.33
2018-03-30T07:40:15.478Z,16.47
2018-03-30T07:42:42.291Z,16.60
2018-03-30T07:45:09.172Z,14.47
2018-03-30T07:47:35.997Z,13.80
2018-03-30T07:50:03.029Z,12.57
2018-03-30T07:52:30.744Z,14.57
2018-03-30T07:54:57.673Z,15.20
2018-03-30T07:57:24.526Z,13.83
2018-03-30T07:59:51.401Z,14.30
2018-03-30T08:02:18.292Z,14.57
2018-03-30T08:04:45.443Z,16.63
2018-03-30T08:07:12.283Z,11.67
2018-03-30T08:09:39.131Z,9.80
2018-03-30T08:12:06.447Z,10.83
2018-03-30T08:14:33.349Z,11.07
2018-03-30T08:17:00.158Z,13.90
2018-03-30T08:19:27.039Z,12.10
2018-03-30T08:21:54.930Z,12.83
2018-03-30T08:24:21.840Z,11.97
2018-03-30T08:26:48.798Z,15.80
2018-03-30T08:29:15.971Z,9.10
2018-03-30T08:31:42.793Z,10.90
2018-03-30T08:34:09.593Z,15.00
2018-03-30T08:36:36.365Z,26.87
2018-03-30T08:39:03.248Z,11.20
2018-03-30T08:41:30.063Z,13.67
2018-03-30T08:43:57.553Z,12.50
2018-03-30T08:46:24.432Z,16.43
2018-03-30T08:48:51.250Z,11.50
2018-03-30T08:51:18.110Z,12.73
2018-03-30T08:53:44.897Z,12.90
2018-03-30T08:56:12.222Z,10.33
2018-03-30T08:58:39.025Z,11.67
2018-03-30T09:01:05.810Z,12.87
2018-03-30T09:03:32.657Z,10.47
2018-03-30T09:05:59.454Z,11.83
2018-03-30T09:08:26.250Z,12.47
2018-03-30T09:10:53.061Z,10.27
2018-03-30T09:13:19.893Z,9.60
2018-03-30T09:15:46.674Z,14.87
2018-03-30T09:18:13.459Z,10.33
2018-03-30T09:20:40.279Z,12.63
2018-03-30T09:23:07.124Z,11.57
2018-03-30T09:25:33.922Z,10.47
2018-03-30T09:28:00.753Z,8.43
2018-03-30T09:30:27.503Z,9.53
2018-03-30T09:32:54.305Z,13.83
2018-03-30T09:35:22.646Z,10.97
2018-03-30T09:37:49.429Z,10.40
2018-03-30T09:40:16.183Z,8.03
2018-03-30T09:42:42.979Z,14.03
2018-03-30T09:45:09.803Z,10.83
2018-03-30T09:47:37.459Z,11.10
2018-03-30T09:50:09.070Z,18.73
2018-03-30T09:52:51.022Z,19.00
2018-03-30T09:55:18.195Z,10.93
2018-03-30T09:57:46.614Z,11.70
2018-03-30T10:00:13.646Z,9.90
2018-03-30T10:02:40.522Z,11.10
2018-03-30T10:05:07.361Z,9.83
2018-03-30T10:07:34.278Z,12.33
2018-03-30T10:10:03.162Z,10.73
2018-03-30T10:12:30.127Z,10.13
2018-03-30T10:14:56.921Z,10.57
2018-03-30T10:17:23.726Z,10.23
2018-03-30T10:19:50.530Z,12.17
2018-03-30T10:22:17.360Z,10.13
2018-03-30T10:24:44.106Z,11.37
2018-03-30T10:27:11.204Z,11.30
2018-03-30T10:29:37.994Z,9.83
2018-03-30T10:32:04.833Z,9.93
2018-03-30T10:34:31.617Z,14.00
2018-03-30T10:36:59.028Z,13.33
2018-03-30T10:39:34.051Z,14.53
2018-03-30T10:42:01.241Z,11.07
2018-03-30T10:44:28.117Z,11.00
2018-03-30T10:46:54.908Z,8.20
2018-03-30T10:49:21.732Z,10.30
2018-03-30T10:51:48.525Z,7.03
2018-03-30T10:54:15.340Z,8.73
2018-03-30T10:56:42.097Z,15.43
2018-03-30T10:59:08.912Z,8.67
2018-03-30T11:01:35.711Z,9.77
2018-03-30T11:04:02.512Z,9.30
2018-03-30T11:06:30.018Z,9.47
2018-03-30T11:08:56.868Z,10.30
2018-03-30T11:11:23.849Z,9.80
2018-03-30T11:13:50.606Z,10.23
2018-03-30T11:16:17.365Z,8.63
2018-03-30T11:18:44.176Z,12.07
2018-03-30T11:21:10.982Z,7.70
2018-03-30T11:23:37.792Z,10.60
2018-03-30T11:26:04.631Z,15.53
2018-03-30T11:28:31.462Z,7.43
2018-03-30T11:30:58.272Z,6.23
2018-03-30T11:33:25.868Z,8.80
2018-03-30T11:35:52.645Z,8.40
2018-03-30T11:38:19.446Z,8.87
2018-03-30T11:40:46.230Z,6.70
2018-03-30T11:43:13.041Z,7.57
2018-03-30T11:45:40.538Z,8.20
2018-03-30T11:48:07.347Z,9.80
2018-03-30T11:50:34.177Z,7.20
2018-03-30T11:53:00.989Z,7.23
2018-03-30T11:55:27.770Z,7.70
2018-03-30T11:57:54.581Z,7.17
2018-03-30T12:00:21.417Z,6.40
2018-03-30T12:02:48.261Z,12.40
2018-03-30T12:05:15.111Z,9.87
2018-03-30T12:07:41.905Z,7.20
2018-03-30T12:10:08.739Z,18.80
2018-03-30T12:12:35.506Z,37.77
2018-03-30T12:15:02.301Z,8.60
2018-03-30T12:17:29.134Z,9.40
2018-03-30T12:19:55.860Z,7.73
2018-03-30T12:22:22.663Z,7.30
2018-03-30T12:27:03.544Z,8.17
2018-03-30T12:29:30.332Z,11.90
2018-03-30T12:31:57.700Z,7.43
2018-03-30T12:34:24.569Z,9.97
2018-03-30T12:36:51.433Z,9.00
2018-03-30T12:39:18.248Z,10.43
2018-03-30T12:41:45.063Z,7.77
2018-03-30T12:44:11.905Z,7.07
2018-03-30T12:46:38.684Z,9.50
2018-03-30T12:49:05.493Z,7.57
2018-03-30T12:51:32.315Z,9.80
2018-03-30T12:53:59.132Z,7.30
2018-03-30T12:56:25.972Z,12.97
2018-03-30T12:58:52.762Z,9.77
2018-03-30T13:01:19.604Z,10.23
2018-03-30T13:03:46.376Z,7.73
2018-03-30T13:06:13.205Z,10.30
2018-03-30T13:08:39.982Z,7.50
2018-03-30T13:11:06.797Z,10.53
2018-03-30T13:13:33.603Z,8.03
2018-03-30T13:16:00.496Z,8.60
2018-03-30T13:18:27.281Z,9.73
2018-03-30T13:20:54.084Z,8.17
2018-03-30T13:23:20.866Z,7.93
2018-03-30T13:25:47.645Z,12.43
2018-03-30T13:28:14.466Z,8.50
2018-03-30T13:30:41.256Z,10.00
2018-03-30T13:33:08.069Z,72.30
2018-03-30T13:35:34.826Z,9.87
2018-03-30T13:38:01.574Z,17.40
2018-03-30T13:40:28.364Z,9.10
2018-03-30T13:42:55.168Z,12.07
2018-03-30T13:45:21.936Z,9.23
2018-03-30T13:47:48.712Z,9.50
2018-03-30T13:50:16.354Z,9.53
2018-03-30T13:52:43.260Z,10.53
2018-03-30T13:55:10.061Z,10.00
2018-03-30T13:57:36.884Z,18.97
2018-03-30T14:00:09.556Z,86.17
2018-03-30T14:02:38.112Z,23.07
2018-03-30T14:05:06.746Z,11.37
2018-03-30T14:07:33.573Z,11.07
2018-03-30T14:10:01.192Z,7.47
2018-03-30T14:12:28.801Z,9.20
2018-03-30T14:14:55.565Z,10.13
2018-03-30T14:17:26.302Z,8.23
2018-03-30T14:19:53.860Z,9.97
2018-03-30T14:22:23.725Z,9.73
2018-03-30T14:24:50.530Z,9.00
2018-03-30T14:27:18.124Z,8.57
2018-03-30T14:29:47.776Z,17.57
2018-03-30T14:32:20.541Z,9.77
2018-03-30T14:34:48.240Z,14.13
2018-03-30T14:37:17.922Z,9.40
2018-03-30T14:40:00.575Z,8.87
2018-03-30T14:42:42.234Z,7.70
2018-03-30T14:45:11.880Z,8.90
2018-03-30T14:47:39.422Z,11.40
2018-03-30T14:50:07.128Z,10.97
2018-03-30T14:52:34.716Z,11.47
2018-03-30T14:55:07.557Z,10.37
2018-03-30T14:57:36.277Z,12.10
2018-03-30T15:00:13.908Z,38.37
2018-03-30T15:02:42.378Z,13.83
2018-03-30T15:05:10.032Z,9.70
2018-03-30T15:07:37.624Z,12.67
2018-03-30T15:10:07.341Z,12.77
2018-03-30T15:12:41.110Z,18.33
2018-03-30T15:15:08.719Z,9.00
2018-03-30T15:17:38.396Z,8.17
2018-03-30T15:20:09.069Z,9.63
2018-03-30T15:22:41.846Z,8.70
2018-03-30T15:25:13.640Z,8.37
2018-03-30T15:27:45.372Z,7.57
2018-03-30T15:30:14.078Z,10.50
2018-03-30T15:32:56.596Z,11.27
2018-03-30T15:35:23.404Z,15.33
2018-03-30T15:37:50.180Z,10.63
2018-03-30T15:40:17.811Z,19.73
2018-03-30T15:42:47.682Z,16.27
2018-03-30T15:45:17.742Z,8.97
2018-03-30T15:47:45.030Z,9.03
2018-03-30T15:50:11.952Z,11.03
2018-03-30T15:52:40.409Z,10.20
2018-03-30T15:55:07.207Z,9.60
2018-03-30T15:57:34.676Z,11.70
2018-03-30T16:00:01.991Z,10.57
2018-03-30T16:02:28.816Z,9.47
2018-03-30T16:04:55.652Z,12.50
2018-03-30T16:07:32.742Z,15.40
2018-03-30T16:10:00.451Z,13.13
2018-03-30T16:12:30.304Z,27.47
2018-03-30T16:14:57.393Z,25.67
2018-03-30T16:20:04.239Z,24.50
2018-03-30T16:22:30.851Z,11.33
2018-03-30T16:24:57.376Z,9.20
2018-03-30T16:27:23.894Z,9.07
2018-03-30T16:29:50.415Z,7.30
2018-03-30T16:32:17.734Z,12.73
2018-03-30T16:34:44.374Z,12.63
2018-03-30T16:37:11.244Z,8.80
2018-03-30T16:39:37.781Z,9.47
2018-03-30T16:42:04.316Z,9.47
2018-03-30T16:44:30.893Z,10.23
2018-03-30T16:46:57.448Z,13.40
2018-03-30T16:49:24.005Z,18.47
2018-03-30T16:51:50.567Z,20.60
2018-03-30T16:54:17.152Z,18.17
2018-03-30T16:56:43.702Z,13.73
2018-03-30T16:59:10.270Z,20.23
2018-03-30T17:01:36.815Z,13.27
2018-03-30T17:04:03.399Z,16.83
2018-03-30T17:06:30.041Z,12.23
2018-03-30T17:08:58.433Z,14.53
2018-03-30T17:11:25.021Z,14.93
2018-03-30T17:13:51.576Z,13.80
2018-03-30T17:16:18.899Z,15.87
2018-03-30T17:18:45.515Z,14.83
2018-03-30T17:21:12.057Z,18.07
2018-03-30T17:23:38.597Z,28.80
2018-03-30T17:26:05.177Z,17.53
2018-03-30T17:28:31.752Z,17.17
2018-03-30T17:30:58.321Z,14.13
2018-03-30T17:33:24.852Z,14.87
2018-03-30T17:35:52.104Z,12.70
2018-03-30T17:38:18.616Z,13.80
2018-03-30T17:40:45.234Z,15.17
2018-03-30T17:43:12.507Z,28.10
2018-03-30T17:45:40.089Z,20.13
2018-03-30T17:48:06.746Z,22.27
2018-03-30T17:50:33.299Z,24.97
2018-03-30T17:53:00.509Z,21.60
2018-03-30T17:55:27.089Z,24.33
2018-03-30T17:57:53.644Z,22.53
2018-03-30T18:00:20.178Z,22.83
2018-03-30T18:02:46.769Z,26.00
2018-03-30T18:05:13.335Z,19.93
2018-03-30T18:07:39.876Z,22.00
2018-03-30T18:10:06.385Z,24.93
2018-03-30T18:12:32.897Z,23.33
2018-03-30T18:14:59.508Z,24.30
2018-03-30T18:17:26.444Z,23.50
2018-03-30T18:19:53.017Z,29.40
2018-03-30T18:22:19.641Z,28.77
2018-03-30T18:24:46.354Z,29.43
2018-03-30T18:27:12.909Z,27.43
2018-03-30T18:29:40.193Z,32.20
2018-03-30T18:32:06.732Z,28.20
2018-03-30T18:34:33.253Z,26.03
2018-03-30T18:37:00.437Z,24.80
2018-03-30T18:39:27.133Z,28.13
2018-03-30T18:41:54.441Z,23.53
2018-03-30T18:44:21.784Z,30.57
2018-03-30T18:46:48.675Z,31.63
2018-03-30T18:49:15.285Z,29.40
2018-03-30T18:51:41.882Z,32.37
2018-03-30T18:54:08.425Z,28.50
2018-03-30T18:56:34.999Z,34.13
2018-03-30T18:59:03.477Z,38.00
2018-03-30T19:01:30.056Z,34.70
2018-03-30T19:03:57.282Z,35.70
2018-03-30T19:06:24.712Z,32.93
2018-03-30T19:08:51.240Z,32.13
2018-03-30T19:11:18.739Z,29.90
2018-03-30T19:13:45.301Z,34.17
2018-03-30T19:16:11.848Z,32.80
2018-03-30T19:18:38.401Z,85.07
2018-03-30T19:21:05.593Z,386.60
2018-03-30T19:23:32.176Z,678.57
2018-03-30T19:25:58.713Z,598.50
2018-03-30T19:28:25.401Z,739.80
2018-03-30T19:30:52.756Z,69.50
2018-03-30T19:33:19.807Z,88.93
2018-03-30T19:35:46.493Z,46.13
2018-03-30T19:38:13.120Z,49.00
2018-03-30T19:40:39.732Z,40.23
2018-03-30T19:43:06.288Z,39.60
2018-03-30T19:45:32.848Z,49.13
2018-03-30T19:48:00.103Z,67.67
2018-03-30T19:50:26.670Z,52.97
2018-03-30T19:52:53.323Z,75.10
2018-03-30T19:55:19.866Z,40.87
2018-03-30T19:57:46.526Z,40.23
2018-03-30T20:00:13.125Z,37.00
2018-03-30T20:02:39.704Z,44.10
2018-03-30T20:05:06.966Z,38.23
2018-03-30T20:07:34.192Z,42.00
2018-03-30T20:10:00.787Z,34.30
2018-03-30T20:12:27.424Z,37.27
2018-03-30T20:14:53.920Z,38.43
2018-03-30T20:17:20.593Z,41.37
2018-03-30T20:19:47.209Z,36.17
2018-03-30T20:22:13.761Z,31.23
2018-03-30T20:24:40.374Z,28.87
2018-03-30T20:27:07.039Z,25.03
2018-03-30T20:29:33.598Z,20.93
2018-03-30T20:32:00.197Z,25.80
2018-03-30T20:34:26.729Z,23.87
2018-03-30T20:36:53.307Z,26.70
2018-03-30T20:39:19.950Z,28.60
2018-03-30T20:41:46.607Z,25.70
2018-03-30T20:44:13.216Z,27.10
2018-03-30T20:46:39.951Z,24.73
2018-03-30T20:49:06.479Z,21.57
2018-03-30T20:51:33.003Z,28.70
2018-03-30T20:53:59.601Z,26.60
2018-03-30T20:56:26.198Z,33.23
2018-03-30T20:58:52.890Z,25.83
2018-03-30T21:01:19.985Z,24.50
2018-03-30T21:03:46.504Z,22.17
2018-03-30T21:06:13.028Z,26.50
2018-03-30T21:08:39.703Z,23.00
2018-03-30T21:11:06.260Z,22.17
2018-03-30T21:13:32.853Z,23.00
2018-03-30T21:16:00.305Z,22.37
2018-03-30T21:18:27.335Z,23.83
2018-03-30T21:20:53.869Z,22.73
2018-03-30T21:23:20.454Z,24.73
2018-03-30T21:25:47.006Z,28.20
2018-03-30T21:28:13.583Z,27.30
2018-03-30T21:30:40.160Z,25.50
2018-03-30T21:33:07.389Z,28.43
2018-03-30T21:35:43.882Z,37.03
2018-03-30T21:38:10.483Z,26.13
2018-03-30T21:40:36.988Z,26.70
2018-03-30T21:43:03.648Z,24.17
2018-03-30T21:45:30.541Z,24.70
2018-03-30T21:47:57.074Z,27.23
2018-03-30T21:50:24.313Z,27.13
2018-03-30T21:52:50.906Z,25.20
2018-03-30T21:55:17.524Z,23.87
2018-03-30T21:57:44.053Z,28.57
2018-03-30T22:00:10.700Z,29.07
2018-03-30T22:02:37.741Z,26.77
2018-03-30T22:05:04.380Z,25.50
2018-03-30T22:07:31.532Z,29.23
2018-03-30T22:09:58.066Z,29.27
2018-03-30T22:12:24.671Z,28.80
2018-03-30T22:14:51.220Z,29.33
2018-03-30T22:17:18.561Z,27.67
2018-03-30T22:19:45.087Z,28.20
2018-03-30T22:22:11.681Z,25.33
2018-03-30T22:24:38.252Z,28.30
2018-03-30T22:27:05.585Z,25.63
2018-03-30T22:29:32.181Z,25.70
2018-03-30T22:31:58.681Z,25.27
2018-03-30T22:34:26.273Z,24.47
2018-03-30T22:36:52.848Z,27.60
2018-03-30T22:39:19.492Z,24.17
2018-03-30T22:41:46.103Z,26.10
2018-03-30T22:44:12.695Z,28.57
2018-03-30T22:46:39.254Z,27.80
2018-03-30T22:49:06.481Z,27.20
2018-03-30T22:51:34.050Z,32.67
2018-03-30T22:54:00.953Z,29.60
2018-03-30T22:56:27.484Z,29.57
2018-03-30T22:58:54.288Z,28.73
2018-03-30T23:01:20.799Z,28.37
2018-03-30T23:03:47.337Z,32.80
2018-03-30T23:06:13.874Z,27.40
2018-03-30T23:08:41.363Z,25.53
2018-03-30T23:11:07.968Z,26.43
2018-03-30T23:13:34.612Z,26.43
2018-03-30T23:16:01.530Z,23.20
2018-03-30T23:18:28.482Z,28.80
2018-03-30T23:20:56.240Z,25.57
2018-03-30T23:23:22.825Z,28.47
2018-03-30T23:25:50.051Z,31.47
2018-03-30T23:28:16.569Z,26.00
2018-03-30T23:30:43.112Z,27.03
2018-03-30T23:33:09.785Z,28.93
2018-03-30T23:35:36.329Z,30.77
2018-03-30T23:38:03.413Z,28.27
2018-03-30T23:40:30.053Z,27.87
2018-03-30T23:42:56.588Z,25.27
2018-03-30T23:45:23.164Z,27.47
2018-03-30T23:47:49.732Z,26.47
2018-03-30T23:50:16.304Z,26.27
2018-03-30T23:52:43.057Z,27.63
2018-03-30T23:55:09.666Z,26.00
2018-03-30T23:57:37.292Z,29.67
